createdAt,value
2022-12-15T00:00:09.395Z,86.57
2022-12-15T00:03:31.711Z,86.41
2022-12-15T00:06:54.712Z,86.57
2022-12-15T00:10:16.251Z,86.82
2022-12-15T00:13:37.452Z,86.68
2022-12-15T00:17:01.026Z,86.61
2022-12-15T00:20:23.051Z,86.84
2022-12-15T00:23:44.923Z,86.67
2022-12-15T00:27:07.528Z,86.89
2022-12-15T00:30:30.575Z,87.45
2022-12-15T00:33:52.043Z,87.19
2022-12-15T00:37:14.076Z,86.97
2022-12-15T00:40:16.906Z,86.80
2022-12-15T00:43:19.800Z,86.88
2022-12-15T00:46:41.059Z,86.74
2022-12-15T00:50:02.965Z,86.82
2022-12-15T00:53:24.331Z,86.70
2022-12-15T00:56:46.421Z,87.46
2022-12-15T01:00:07.873Z,86.88
2022-12-15T01:03:38.484Z,86.92
2022-12-15T01:06:59.916Z,86.94
2022-12-15T01:10:21.671Z,86.95
2022-12-15T01:13:49.928Z,87.63
2022-12-15T01:17:11.573Z,88.45
2022-12-15T01:20:20.106Z,87.68
2022-12-15T01:23:23.094Z,87.55
2022-12-15T01:26:25.841Z,87.59
2022-12-15T01:29:28.835Z,87.74
2022-12-15T01:32:31.500Z,87.25
2022-12-15T01:35:35.212Z,87.36
2022-12-15T01:38:38.293Z,87.51
2022-12-15T01:41:42.328Z,87.48
2022-12-15T01:44:50.051Z,87.09
2022-12-15T01:47:55.630Z,87.02
2022-12-15T01:51:04.256Z,87.50
2022-12-15T01:54:13.675Z,87.40
2022-12-15T01:57:25.793Z,87.34
2022-12-15T02:00:29.920Z,87.08
2022-12-15T02:03:33.822Z,87.62
2022-12-15T02:06:37.153Z,87.54
2022-12-15T02:09:40.948Z,87.65
2022-12-15T02:13:04.021Z,87.71
2022-12-15T02:16:14.070Z,87.76
2022-12-15T02:19:38.566Z,88.16
2022-12-15T02:23:19.087Z,88.06
2022-12-15T02:27:02.287Z,87.97
2022-12-15T02:30:34.871Z,88.04
2022-12-15T02:34:00.535Z,87.85
2022-12-15T02:37:08.331Z,87.73
2022-12-15T02:40:11.936Z,87.92
2022-12-15T02:43:15.955Z,87.68
2022-12-15T02:46:42.258Z,87.62
2022-12-15T02:50:03.127Z,88.07
2022-12-15T02:53:24.367Z,87.70
2022-12-15T02:56:49.752Z,87.66
2022-12-15T03:00:00.861Z,87.92
2022-12-15T03:03:03.882Z,87.73
2022-12-15T03:06:07.284Z,87.94
2022-12-15T03:09:11.137Z,87.95
2022-12-15T03:12:14.128Z,87.99
2022-12-15T03:15:17.613Z,88.09
2022-12-15T03:18:21.117Z,88.14
2022-12-15T03:21:25.923Z,87.76
2022-12-15T03:24:30.270Z,87.40
2022-12-15T03:27:33.349Z,87.21
2022-12-15T03:30:36.359Z,86.90
2022-12-15T03:33:39.385Z,86.58
2022-12-15T03:36:42.391Z,86.54
2022-12-15T03:39:45.181Z,86.68
2022-12-15T03:42:48.724Z,86.12
2022-12-15T03:45:52.787Z,85.75
2022-12-15T03:48:55.935Z,85.53
2022-12-15T03:51:59.867Z,85.03
2022-12-15T03:55:04.040Z,84.80
2022-12-15T03:58:09.059Z,84.45
2022-12-15T04:01:19.270Z,84.36
2022-12-15T04:04:22.274Z,84.52
2022-12-15T04:07:25.028Z,84.93
2022-12-15T04:10:34.242Z,85.00
2022-12-15T04:13:37.597Z,84.57
2022-12-15T04:16:41.860Z,84.42
2022-12-15T04:20:02.892Z,84.57
2022-12-15T04:23:10.329Z,84.72
2022-12-15T04:26:33.044Z,84.93
2022-12-15T04:29:54.785Z,84.90
2022-12-15T04:33:16.429Z,84.83
2022-12-15T04:36:38.143Z,85.11
2022-12-15T04:40:02.859Z,84.60
2022-12-15T04:43:25.463Z,84.36
2022-12-15T04:46:48.368Z,84.93
2022-12-15T04:50:10.236Z,85.56
2022-12-15T04:53:35.120Z,85.66
2022-12-15T04:56:56.799Z,84.90
2022-12-15T05:00:17.889Z,84.91
2022-12-15T05:03:43.051Z,84.58
2022-12-15T05:07:04.680Z,84.88
2022-12-15T05:10:26.535Z,84.97
2022-12-15T05:13:47.895Z,84.37
2022-12-15T05:17:09.997Z,84.25
2022-12-15T05:20:31.506Z,83.96
2022-12-15T05:23:53.226Z,83.80
2022-12-15T05:27:14.378Z,84.31
2022-12-15T05:30:36.069Z,83.90
2022-12-15T05:33:39.099Z,84.11
2022-12-15T05:36:42.275Z,83.66
2022-12-15T05:39:45.889Z,83.37
2022-12-15T05:42:50.243Z,83.08
2022-12-15T05:45:54.555Z,83.37
2022-12-15T05:48:57.636Z,83.55
2022-12-15T05:52:00.374Z,83.26
2022-12-15T05:55:03.579Z,83.47
2022-12-15T05:58:06.214Z,83.43
2022-12-15T06:01:14.811Z,83.43
2022-12-15T06:04:17.915Z,83.30
2022-12-15T06:07:20.678Z,82.90
2022-12-15T06:10:23.864Z,83.02
2022-12-15T06:13:37.008Z,83.26
2022-12-15T06:16:50.259Z,82.88
2022-12-15T06:19:53.865Z,82.96
2022-12-15T06:22:57.565Z,82.61
2022-12-15T06:26:07.887Z,83.24
2022-12-15T06:29:12.581Z,83.54
2022-12-15T06:32:15.251Z,83.79
2022-12-15T06:35:18.362Z,83.46
2022-12-15T06:38:21.000Z,83.58
2022-12-15T06:41:24.868Z,83.30
2022-12-15T06:44:27.520Z,83.66
2022-12-15T06:47:30.950Z,83.35
2022-12-15T06:50:34.703Z,83.35
2022-12-15T06:53:41.379Z,83.51
2022-12-15T06:56:44.096Z,83.57
2022-12-15T06:59:47.076Z,84.05
2022-12-15T07:02:50.074Z,84.69
2022-12-15T07:06:05.612Z,85.17
2022-12-15T07:09:14.140Z,85.24
2022-12-15T07:12:17.215Z,85.14
2022-12-15T07:15:20.011Z,85.17
2022-12-15T07:18:23.009Z,85.66
2022-12-15T07:21:25.809Z,85.90
2022-12-15T07:24:29.208Z,85.99
2022-12-15T07:27:31.947Z,85.91
2022-12-15T07:30:38.970Z,85.81
2022-12-15T07:33:41.823Z,86.56
2022-12-15T07:36:51.587Z,85.75
2022-12-15T07:39:54.962Z,85.72
2022-12-15T07:42:58.094Z,85.60
2022-12-15T07:46:01.272Z,84.54
2022-12-15T07:49:04.325Z,83.13
2022-12-15T07:52:07.298Z,83.05
2022-12-15T07:55:10.285Z,83.70
2022-12-15T07:58:14.146Z,83.81
2022-12-15T08:01:18.843Z,83.78
2022-12-15T08:04:21.949Z,83.39
2022-12-15T08:07:25.701Z,82.66
2022-12-15T08:10:48.097Z,82.63
2022-12-15T08:14:10.647Z,82.33
2022-12-15T08:17:15.230Z,82.29
2022-12-15T08:20:18.197Z,81.84
2022-12-15T08:23:21.680Z,81.41
2022-12-15T08:26:30.070Z,81.07
2022-12-15T08:29:50.666Z,79.67
2022-12-15T08:32:55.153Z,79.38
2022-12-15T08:36:00.029Z,79.59
2022-12-15T08:39:03.977Z,79.47
2022-12-15T08:42:08.532Z,79.59
2022-12-15T08:45:12.832Z,79.68
2022-12-15T08:48:15.927Z,79.04
2022-12-15T08:51:21.488Z,78.36
2022-12-15T08:54:25.460Z,78.97
2022-12-15T08:57:29.260Z,78.85
2022-12-15T09:00:31.891Z,79.02
2022-12-15T09:03:38.941Z,79.85
2022-12-15T09:06:42.169Z,79.67
2022-12-15T09:09:45.231Z,79.52
2022-12-15T09:12:48.008Z,78.87
2022-12-15T09:16:10.309Z,78.90
2022-12-15T09:19:13.640Z,79.57
2022-12-15T09:22:16.689Z,79.54
2022-12-15T09:25:19.341Z,79.58
2022-12-15T09:28:22.264Z,79.69
2022-12-15T09:31:30.490Z,78.53
2022-12-15T09:34:33.868Z,77.05
2022-12-15T09:37:36.536Z,76.74
2022-12-15T09:40:40.598Z,77.03
2022-12-15T09:44:03.515Z,77.57
2022-12-15T09:47:28.069Z,77.48
2022-12-15T09:50:41.281Z,76.98
2022-12-15T09:53:54.853Z,76.57
2022-12-15T09:57:03.046Z,77.78
2022-12-15T10:00:12.237Z,77.61
2022-12-15T10:03:53.234Z,77.60
2022-12-15T10:07:06.518Z,77.91
2022-12-15T10:10:30.161Z,78.28
2022-12-15T10:13:52.898Z,78.83
2022-12-15T10:17:16.053Z,78.91
2022-12-15T10:20:22.688Z,79.15
2022-12-15T10:23:26.007Z,79.67
2022-12-15T10:26:34.273Z,79.98
2022-12-15T10:29:44.793Z,79.44
2022-12-15T10:33:22.911Z,78.82
2022-12-15T10:36:27.634Z,80.62
2022-12-15T10:39:44.610Z,79.41
2022-12-15T10:42:50.162Z,78.94
2022-12-15T10:46:22.331Z,78.53
2022-12-15T10:49:25.577Z,78.90
2022-12-15T10:52:37.981Z,79.00
2022-12-15T10:55:49.765Z,78.98
2022-12-15T10:58:56.875Z,79.09
2022-12-15T11:02:23.518Z,79.25
2022-12-15T11:05:28.027Z,79.57
2022-12-15T11:08:32.195Z,80.18
2022-12-15T11:12:04.511Z,79.72
2022-12-15T11:15:22.649Z,79.78
2022-12-15T11:18:53.943Z,80.04
2022-12-15T11:22:01.611Z,80.38
2022-12-15T11:25:29.458Z,79.90
2022-12-15T11:28:46.115Z,77.98
2022-12-15T11:31:54.795Z,78.40
2022-12-15T11:34:59.377Z,79.31
2022-12-15T11:38:23.449Z,80.29
2022-12-15T11:41:45.011Z,79.35
2022-12-15T11:44:56.797Z,79.67
2022-12-15T11:48:19.678Z,80.68
2022-12-15T11:51:47.191Z,81.81
2022-12-15T11:55:02.515Z,82.24
2022-12-15T11:58:23.331Z,82.28
2022-12-15T12:01:26.316Z,83.28
2022-12-15T12:04:41.080Z,82.85
2022-12-15T12:08:00.043Z,82.37
2022-12-15T12:11:14.456Z,81.25
2022-12-15T12:14:17.240Z,81.43
2022-12-15T12:17:27.473Z,81.60
2022-12-15T12:20:43.840Z,81.82
2022-12-15T12:24:10.131Z,81.05
2022-12-15T12:27:33.991Z,80.46
2022-12-15T12:30:46.278Z,80.57
2022-12-15T12:33:58.971Z,80.89
2022-12-15T12:37:16.707Z,80.56
2022-12-15T12:40:40.914Z,80.42
2022-12-15T12:43:52.820Z,80.14
2022-12-15T12:46:58.836Z,80.17
2022-12-15T12:50:12.557Z,80.26
2022-12-15T12:53:35.241Z,80.47
2022-12-15T12:56:45.606Z,80.72
2022-12-15T13:00:01.222Z,81.09
2022-12-15T13:03:11.132Z,80.90
2022-12-15T13:06:39.806Z,80.41
2022-12-15T13:09:44.001Z,80.27
2022-12-15T13:12:53.259Z,80.29
2022-12-15T13:16:25.944Z,80.28
2022-12-15T13:19:56.747Z,80.49
2022-12-15T13:23:21.782Z,80.66
2022-12-15T13:26:31.638Z,81.07
2022-12-15T13:29:36.056Z,81.39
2022-12-15T13:32:41.504Z,81.69
2022-12-15T13:35:44.987Z,81.44
2022-12-15T13:38:55.544Z,81.76
2022-12-15T13:42:32.509Z,81.79
2022-12-15T13:45:38.505Z,81.97
2022-12-15T13:48:54.007Z,81.82
2022-12-15T13:53:08.094Z,82.04
2022-12-15T13:55:57.592Z,82.21
2022-12-15T13:59:12.698Z,82.09
2022-12-15T14:02:30.605Z,81.56
2022-12-15T14:05:33.940Z,81.74
2022-12-15T14:08:36.843Z,81.63
2022-12-15T14:11:57.565Z,81.76
2022-12-15T14:15:00.588Z,82.11
2022-12-15T14:18:03.725Z,82.02
2022-12-15T14:21:19.640Z,82.12
2022-12-15T14:24:38.606Z,82.14
2022-12-15T14:27:43.860Z,81.82
2022-12-15T14:34:18.020Z,82.07
2022-12-15T14:37:21.500Z,81.89
2022-12-15T14:40:28.974Z,81.96
2022-12-15T14:43:37.034Z,81.96
2022-12-15T14:46:45.614Z,82.19
2022-12-15T14:49:49.448Z,82.33
2022-12-15T14:52:58.176Z,82.50
2022-12-15T14:56:31.294Z,82.85
2022-12-15T14:59:35.836Z,83.00
2022-12-15T15:02:38.910Z,84.05
2022-12-15T15:03:16.631Z,82.20
2022-12-15T15:05:47.089Z,84.11
2022-12-15T15:08:52.903Z,83.89
2022-12-15T15:12:09.168Z,83.98
2022-12-15T15:15:17.956Z,84.63
2022-12-15T15:18:25.353Z,84.40
2022-12-15T15:21:30.422Z,83.95
2022-12-15T15:24:37.649Z,84.17
2022-12-15T15:27:40.611Z,84.85
2022-12-15T15:31:05.457Z,84.88
2022-12-15T15:34:08.788Z,85.02
2022-12-15T15:37:20.772Z,84.36
2022-12-15T15:40:24.874Z,84.65
2022-12-15T15:43:29.369Z,84.87
2022-12-15T15:46:36.010Z,85.23
2022-12-15T15:49:39.590Z,86.61
2022-12-15T15:52:45.154Z,85.82
2022-12-15T15:55:50.707Z,86.44
2022-12-15T15:58:53.928Z,86.71
2022-12-15T16:01:57.911Z,87.09
2022-12-15T16:05:01.050Z,88.63
2022-12-15T16:08:05.142Z,88.01
2022-12-15T16:11:12.096Z,87.44
2022-12-15T16:14:16.888Z,87.57
2022-12-15T16:17:22.209Z,88.87
2022-12-15T16:20:28.075Z,89.67
2022-12-15T16:23:31.092Z,90.19
2022-12-15T16:26:34.258Z,90.53
2022-12-15T16:29:37.481Z,89.84
2022-12-15T16:32:40.147Z,89.40
2022-12-15T16:35:44.632Z,89.05
2022-12-15T16:38:47.491Z,89.07
2022-12-15T16:41:52.870Z,89.12
2022-12-15T16:44:55.635Z,90.85
2022-12-15T16:47:58.928Z,92.40
2022-12-15T16:51:02.810Z,93.60
2022-12-15T16:54:07.391Z,94.61
2022-12-15T16:57:12.346Z,94.52
2022-12-15T17:00:25.069Z,94.78
2022-12-15T17:03:28.652Z,94.94
2022-12-15T17:06:32.602Z,94.07
2022-12-15T17:09:38.147Z,94.12
2022-12-15T17:12:41.570Z,93.48
2022-12-15T17:15:44.348Z,93.28
2022-12-15T17:18:49.703Z,93.45
2022-12-15T17:21:54.257Z,93.73
2022-12-15T17:24:57.226Z,92.71
2022-12-15T17:28:00.776Z,92.80
2022-12-15T17:31:04.463Z,91.57
2022-12-15T17:34:22.838Z,91.74
2022-12-15T17:37:29.268Z,93.03
2022-12-15T17:40:36.474Z,92.81
2022-12-15T17:43:40.840Z,93.04
2022-12-15T17:46:44.199Z,92.13
2022-12-15T17:49:47.658Z,91.76
2022-12-15T17:52:50.660Z,91.43
2022-12-15T17:55:55.944Z,92.82
2022-12-15T17:58:59.148Z,92.56
2022-12-15T18:02:02.482Z,92.27
2022-12-15T18:05:06.672Z,92.85
2022-12-15T18:08:27.955Z,92.97
2022-12-15T18:11:31.128Z,93.10
2022-12-15T18:14:35.440Z,93.04
2022-12-15T18:17:44.593Z,93.01
2022-12-15T18:20:49.735Z,92.97
2022-12-15T18:27:22.161Z,91.65
2022-12-15T18:30:27.302Z,91.26
2022-12-15T18:33:31.277Z,91.17
2022-12-15T18:36:37.734Z,91.15
2022-12-15T18:39:41.925Z,91.70
2022-12-15T18:42:47.937Z,91.73
2022-12-15T18:45:53.691Z,91.91
2022-12-15T18:48:57.369Z,91.87
2022-12-15T18:52:01.631Z,91.62
2022-12-15T18:55:16.637Z,91.64
2022-12-15T18:58:24.872Z,91.56
2022-12-15T19:01:28.768Z,91.54
2022-12-15T19:04:32.279Z,91.38
2022-12-15T19:07:37.946Z,91.34
2022-12-15T19:10:50.426Z,91.02
2022-12-15T19:13:54.089Z,90.92
2022-12-15T19:17:16.640Z,91.43
2022-12-15T19:20:39.692Z,91.95
2022-12-15T19:23:42.803Z,91.76
2022-12-15T19:26:46.153Z,92.11
2022-12-15T19:29:52.304Z,91.67
2022-12-15T19:32:56.556Z,91.26
2022-12-15T19:35:59.725Z,91.10
2022-12-15T19:39:04.045Z,90.70
2022-12-15T19:42:19.145Z,90.89
2022-12-15T19:45:26.447Z,92.23
2022-12-15T19:48:30.418Z,92.01
2022-12-15T19:51:36.639Z,92.86
2022-12-15T19:54:40.774Z,93.26
2022-12-15T19:57:45.993Z,94.05
2022-12-15T20:00:50.622Z,93.46
2022-12-15T20:03:56.716Z,93.18
2022-12-15T20:07:03.474Z,92.76
2022-12-15T20:10:27.859Z,92.42
2022-12-15T20:13:35.205Z,92.05
2022-12-15T20:16:38.950Z,92.41
2022-12-15T20:19:43.886Z,92.08
2022-12-15T20:22:54.087Z,92.13
2022-12-15T20:25:58.503Z,92.46
2022-12-15T20:29:04.955Z,92.84
2022-12-15T20:32:18.023Z,93.12
2022-12-15T20:35:23.443Z,93.48
2022-12-15T20:38:34.551Z,93.76
2022-12-15T20:41:38.513Z,93.54
2022-12-15T20:44:44.653Z,93.59
2022-12-15T20:47:50.178Z,92.80
2022-12-15T20:50:54.596Z,92.66
2022-12-15T20:54:01.581Z,92.50
2022-12-15T20:57:05.077Z,92.26
2022-12-15T21:00:10.741Z,91.76
2022-12-15T21:03:29.035Z,91.49
2022-12-15T21:06:32.826Z,91.48
2022-12-15T21:09:36.214Z,91.03
2022-12-15T21:12:40.964Z,90.99
2022-12-15T21:15:43.886Z,91.29
2022-12-15T21:19:19.897Z,90.94
2022-12-15T21:22:28.720Z,91.31
2022-12-15T21:25:32.186Z,91.32
2022-12-15T21:28:35.047Z,92.21
2022-12-15T21:31:39.141Z,92.09
2022-12-15T21:34:43.064Z,91.60
2022-12-15T21:37:51.841Z,92.78
2022-12-15T21:41:07.884Z,93.05
2022-12-15T21:44:14.719Z,92.39
2022-12-15T21:47:47.734Z,92.30
2022-12-15T21:50:52.119Z,92.22
2022-12-15T21:53:55.082Z,92.12
2022-12-15T21:56:59.532Z,91.84
2022-12-15T22:00:17.928Z,91.65
2022-12-15T22:03:20.894Z,91.32
2022-12-15T22:06:29.046Z,91.86
2022-12-15T22:09:32.013Z,93.04
2022-12-15T22:12:34.823Z,92.78
2022-12-15T22:15:37.858Z,92.83
2022-12-15T22:18:40.537Z,92.78
2022-12-15T22:21:44.697Z,92.48
2022-12-15T22:24:48.819Z,92.49
2022-12-15T22:27:55.068Z,91.71
2022-12-15T22:30:58.480Z,91.81
2022-12-15T22:34:01.659Z,91.31
2022-12-15T22:37:04.320Z,91.12
2022-12-15T22:40:07.770Z,91.27
2022-12-15T22:43:56.962Z,92.07
2022-12-15T22:47:02.746Z,91.71
2022-12-15T22:50:06.235Z,91.62
2022-12-15T22:53:14.777Z,91.20
2022-12-15T22:56:24.892Z,91.44
2022-12-15T22:59:35.764Z,91.11
2022-12-15T23:02:43.159Z,92.07
2022-12-15T23:05:47.766Z,92.35
2022-12-15T23:08:55.898Z,92.14
2022-12-15T23:11:59.413Z,92.53
2022-12-15T23:15:21.843Z,92.67
2022-12-15T23:18:25.004Z,92.84
2022-12-15T23:21:28.390Z,94.19
2022-12-15T23:24:31.500Z,93.77
2022-12-15T23:27:34.216Z,93.73
2022-12-15T23:30:37.308Z,93.78
2022-12-15T23:33:41.341Z,93.89
2022-12-15T23:36:44.641Z,93.84
2022-12-15T23:39:47.335Z,93.67
2022-12-15T23:42:51.399Z,94.43
2022-12-15T23:46:02.316Z,95.07
2022-12-15T23:49:05.273Z,94.77
2022-12-15T23:52:08.640Z,94.17
2022-12-15T23:55:11.991Z,94.66
2022-12-15T23:58:14.735Z,95.24
